Dalton, Georgia
Current Conditions -  °F | °C
As of 11:15 PM on Tuesday 27 Jan 2015 (Local Time) from KDNN Reporting Station
Overcast Overcast  
Wind Chill: 28°   Ceiling: 2800
Heat Index: 36°   Visibility: 10mi
Dew Point: 30°   Wind: 12mph
Humidity: 81%   Direction: 360°N
Pressure: 30.15"   Gusts: 17mph
Location:  34.76°N, 84.97°W
Report Text: KDNN 280415Z AUTO 36010G15KT 10SM OVC028 02/M01 A3015 RMK AO2
Loading
Personal Weather Stations






























Interactive Weather Map New forecast layout! Learn more

10-Day Weather Forecast

Advertisements
Track Severe Weather on mobile